Time;durP1;ratioP1;P1;durP2;ratioP2;P2;SDS_P1;SDS_P2;PMS_P1;PMS_P2;Temp;Humidity;BMP_temperature;BMP_pressure;BME280_temperature;BME280_humidity;BME280_pressure;Samples;Min_cycle;Max_cycle;Signal;HPM_P1;HPM_P2
2022/11/27 00:01:21;;;;;;;;;;;;;;;2.75;78.74;99554.63;7385338;19;19940;-73
2022/11/27 00:03:47;;;;;;;;;;;;;;;2.68;78.64;99557.63;7383790;19;20351;-73
2022/11/27 00:06:15;;;;;;;;;;;;;;;2.66;78.62;99546.41;7387088;19;20011;-73
2022/11/27 00:08:42;;;;;;;;;;;;;;;2.71;78.44;99541.78;7383244;19;19923;-73
2022/11/27 00:11:10;;;;;;;;;;;;;;;2.74;78.55;99531.19;7388788;19;19931;-75
2022/11/27 00:13:36;;;;;;;;;;;;;;;2.82;78.53;99532.50;7383561;19;19926;-72
2022/11/27 00:16:03;;;;;;;;;;;;;;;2.91;78.60;99528.56;7382594;19;20449;-73
2022/11/27 00:18:31;;;;;;;;;;;;;;;2.93;78.70;99524.09;7380523;19;20276;-72
2022/11/27 00:21:03;;;;;;;;;;;;;;;3.12;78.14;99531.81;7386474;19;19980;-73
2022/11/27 00:23:31;;;;;;;;;;;;;;;3.12;77.53;99525.75;7388473;19;20364;-73
2022/11/27 00:25:57;;;;;;;;;;;;;;;3.06;78.17;99526.94;7391272;19;19914;-73
2022/11/27 00:28:24;;;;;;;;;;;;;;;3.01;78.25;99521.09;7386657;19;19926;-73
2022/11/27 00:30:50;;;;;;;;;;;;;;;2.77;78.42;99525.81;7383719;19;19923;-75
2022/11/27 00:33:17;;;;;;;;;;;;;;;3.12;77.29;99516.13;7386452;19;19911;-75
2022/11/27 00:35:43;;;;;;;;;;;;;;;2.98;77.71;99503.81;7388208;19;19923;-75
2022/11/27 00:38:10;;;;;;;;;;;;;;;2.90;78.16;99505.09;7388476;19;19926;-72
2022/11/27 00:40:37;;;;;;;;;;;;;;;2.93;77.90;99505.81;7388724;19;19952;-75
2022/11/27 00:43:03;;;;;;;;;;;;;;;3.13;77.85;99509.13;7387585;19;19922;-73
2022/11/27 00:45:30;;;;;;;;;;;;;;;3.17;77.71;99502.84;7390206;19;19951;-74
2022/11/27 00:47:56;;;;;;;;;;;;;;;3.04;77.95;99498.25;7384969;19;20626;-74
2022/11/27 00:50:23;;;;;;;;;;;;;;;3.05;77.78;99486.88;7381957;19;19922;-74
2022/11/27 00:52:50;;;;;;;;;;;;;;;3.15;77.35;99487.22;7382912;19;20415;-74
2022/11/27 00:55:16;;;;;;;;;;;;;;;3.31;77.22;99489.84;7384966;19;19926;-74
2022/11/27 00:57:44;;;;;;;;;;;;;;;3.30;77.18;99485.56;7385758;19;20456;-74
2022/11/27 01:00:10;;;;;;;;;;;;;;;3.01;77.26;99477.50;7387594;19;20392;-74
2022/11/27 01:02:37;;;;;;;;;;;;;;;3.11;77.49;99477.84;7385172;19;19926;-74
2022/11/27 01:05:04;;;;;;;;;;;;;;;3.02;77.49;99479.16;7379757;19;19956;-74
2022/11/27 01:07:31;;;;;;;;;;;;;;;3.05;77.65;99471.19;7384263;19;19931;-74
2022/11/27 01:09:57;;;;;;;;;;;;;;;3.06;77.44;99466.78;7384033;19;19936;-74
2022/11/27 01:12:24;;;;;;;;;;;;;;;2.97;77.43;99465.50;7385864;19;20692;-74
2022/11/27 01:14:50;;;;;;;;;;;;;;;3.08;77.59;99457.94;7383176;19;19919;-74
2022/11/27 01:17:17;;;;;;;;;;;;;;;3.07;77.20;99452.78;7385161;19;19919;-74
2022/11/27 01:19:44;;;;;;;;;;;;;;;3.14;77.62;99450.69;7384072;19;19919;-74
2022/11/27 01:22:10;;;;;;;;;;;;;;;3.25;77.22;99448.34;7381067;19;19940;-74
2022/11/27 01:24:36;;;;;;;;;;;;;;;3.20;77.40;99445.13;7383044;19;19919;-74
2022/11/27 01:27:04;;;;;;;;;;;;;;;3.42;76.95;99453.50;7383757;19;19915;-74
2022/11/27 01:29:30;;;;;;;;;;;;;;;3.34;76.68;99447.00;7384325;19;19918;-74
2022/11/27 01:31:57;;;;;;;;;;;;;;;3.43;76.61;99442.09;7387374;19;19929;-74
2022/11/27 01:34:23;;;;;;;;;;;;;;;3.37;76.68;99442.44;7385430;19;20812;-74
2022/11/27 01:36:50;;;;;;;;;;;;;;;3.13;77.16;99438.53;7387342;19;19915;-74
2022/11/27 01:39:18;;;;;;;;;;;;;;;3.07;77.45;99432.72;7384321;19;19948;-74
2022/11/27 01:41:44;;;;;;;;;;;;;;;3.15;77.06;99427.06;7383539;19;19918;-74
2022/11/27 01:44:23;;;;;;;;;;;;;;;3.04;77.54;99427.66;7378586;19;19948;-74
2022/11/27 01:47:00;;;;;;;;;;;;;;;2.91;77.60;99424.00;7384965;19;19958;-74
2022/11/27 01:49:47;;;;;;;;;;;;;;;3.08;77.01;99423.97;7380480;19;19918;-74
2022/11/27 01:52:18;;;;;;;;;;;;;;;2.90;77.29;99417.09;7381328;19;19947;-74
2022/11/27 01:54:50;;;;;;;;;;;;;;;3.07;77.28;99418.78;7378606;19;19915;-74
2022/11/27 01:57:18;;;;;;;;;;;;;;;3.21;76.67;99418.91;7384932;19;20312;-74
2022/11/27 01:59:45;;;;;;;;;;;;;;;3.26;76.46;99418.63;7376023;19;19986;-74
2022/11/27 02:02:11;;;;;;;;;;;;;;;3.32;76.14;99422.69;7377091;19;19919;-74
2022/11/27 02:04:38;;;;;;;;;;;;;;;3.29;76.23;99418.47;7379062;19;19926;-74
2022/11/27 02:07:05;;;;;;;;;;;;;;;3.23;76.30;99419.66;7385249;19;19948;-74
2022/11/27 02:09:31;;;;;;;;;;;;;;;3.12;76.77;99413.31;7381178;19;19931;-74
2022/11/27 02:12:05;;;;;;;;;;;;;;;2.83;76.98;99411.34;7379238;19;20348;-74
2022/11/27 02:14:32;;;;;;;;;;;;;;;3.07;76.80;99405.72;7378994;19;19926;-74
2022/11/27 02:17:02;;;;;;;;;;;;;;;3.00;77.05;99409.59;7382161;19;19911;-74
2022/11/27 02:19:41;;;;;;;;;;;;;;;2.94;76.93;99408.16;7377498;19;19919;-74
2022/11/27 02:22:18;;;;;;;;;;;;;;;2.83;76.96;99408.72;7380930;19;19922;-74
2022/11/27 02:24:49;;;;;;;;;;;;;;;2.60;77.44;99406.47;7381171;19;19944;-74
2022/11/27 02:27:35;;;;;;;;;;;;;;;2.80;77.47;99395.81;7384907;19;20245;-74
2022/11/27 02:30:01;;;;;;;;;;;;;;;2.80;77.62;99395.00;7383506;19;19915;-74
2022/11/27 02:32:30;;;;;;;;;;;;;;;2.94;77.10;99392.47;7382849;19;19923;-74
2022/11/27 02:35:01;;;;;;;;;;;;;;;2.96;76.86;99401.06;7380187;19;20348;-74
2022/11/27 02:37:31;;;;;;;;;;;;;;;3.00;76.64;99399.13;7383259;19;19935;-74
2022/11/27 02:40:02;;;;;;;;;;;;;;;3.02;76.38;99410.34;7382409;19;19944;-74
2022/11/27 02:42:33;;;;;;;;;;;;;;;2.93;76.28;99400.41;7382009;19;19958;-75
2022/11/27 02:45:10;;;;;;;;;;;;;;;3.01;75.94;99400.84;7379418;19;19948;-74
2022/11/27 02:47:38;;;;;;;;;;;;;;;2.86;76.23;99405.09;7381631;19;19915;-74
2022/11/27 02:50:09;;;;;;;;;;;;;;;2.67;77.27;99405.25;7378534;19;19939;-74
2022/11/27 02:52:35;;;;;;;;;;;;;;;2.91;76.98;99400.47;7382337;19;19952;-74
2022/11/27 02:55:03;;;;;;;;;;;;;;;2.86;76.52;99395.50;7382836;19;19927;-74
2022/11/27 02:57:29;;;;;;;;;;;;;;;2.85;76.74;99390.38;7380083;19;19948;-74
2022/11/27 02:59:56;;;;;;;;;;;;;;;2.69;76.60;99394.72;7379705;19;19929;-74
2022/11/27 03:02:32;;;;;;;;;;;;;;;2.60;76.58;99394.25;7379524;19;19923;-74
2022/11/27 03:04:59;;;;;;;;;;;;;;;2.73;77.21;99389.22;7382107;19;19918;-74
2022/11/27 03:07:35;;;;;;;;;;;;;;;2.68;77.02;99379.94;7389295;19;19923;-74
2022/11/27 03:10:03;;;;;;;;;;;;;;;2.67;77.01;99386.97;7387253;19;19934;-74
2022/11/27 03:12:30;;;;;;;;;;;;;;;2.55;77.17;99383.19;7388996;19;19922;-74
2022/11/27 03:14:56;;;;;;;;;;;;;;;2.56;77.09;99378.84;7386983;19;19919;-74
2022/11/27 03:17:42;;;;;;;;;;;;;;;2.60;77.46;99375.97;7387883;19;19990;-74
2022/11/27 03:20:14;;;;;;;;;;;;;;;2.90;76.88;99384.88;7385885;19;19927;-74
2022/11/27 03:22:41;;;;;;;;;;;;;;;2.82;76.77;99387.91;7387284;19;19922;-75
2022/11/27 03:25:08;;;;;;;;;;;;;;;2.78;76.82;99384.59;7383245;19;19919;-74
2022/11/27 03:27:37;;;;;;;;;;;;;;;2.46;76.86;99381.09;7389382;19;19952;-74
2022/11/27 03:30:05;;;;;;;;;;;;;;;2.59;77.44;99379.53;7389977;19;19923;-74
2022/11/27 03:32:32;;;;;;;;;;;;;;;2.63;77.62;99367.13;7392333;19;19919;-75
2022/11/27 03:34:58;;;;;;;;;;;;;;;2.69;76.92;99363.38;7384868;19;19927;-75
2022/11/27 03:37:25;;;;;;;;;;;;;;;2.55;77.19;99364.91;7388817;19;20681;-74
2022/11/27 03:39:51;;;;;;;;;;;;;;;2.51;77.04;99357.34;7386978;19;19923;-75
2022/11/27 03:42:33;;;;;;;;;;;;;;;2.49;76.86;99357.41;7387426;19;19944;-75
2022/11/27 03:45:03;;;;;;;;;;;;;;;2.50;77.21;99364.34;7386771;19;19923;-75
2022/11/27 03:47:48;;;;;;;;;;;;;;;2.47;77.12;99372.31;7387671;19;19922;-75
2022/11/27 03:50:30;;;;;;;;;;;;;;;2.44;77.14;99375.09;7386303;19;19926;-75
2022/11/27 03:53:00;;;;;;;;;;;;;;;2.42;77.25;99369.09;7386632;19;19919;-75
2022/11/27 03:55:29;;;;;;;;;;;;;;;2.40;77.24;99384.03;7389454;19;19918;-75
2022/11/27 03:57:57;;;;;;;;;;;;;;;2.41;77.12;99377.88;7385766;19;19922;-75
2022/11/27 04:00:24;;;;;;;;;;;;;;;2.19;77.26;99371.16;7386862;19;19953;-75
2022/11/27 04:02:51;;;;;;;;;;;;;;;2.19;77.35;99370.31;7386343;19;19914;-75
2022/11/27 04:05:18;;;;;;;;;;;;;;;2.13;77.53;99360.16;7382264;19;19949;-75
2022/11/27 04:07:45;;;;;;;;;;;;;;;2.14;77.41;99360.09;7385959;19;19919;-75
2022/11/27 04:10:12;;;;;;;;;;;;;;;2.14;77.24;99359.25;7385802;19;19918;-75
2022/11/27 04:12:38;;;;;;;;;;;;;;;2.22;77.11;99354.47;7388406;19;20765;-75
2022/11/27 04:15:05;;;;;;;;;;;;;;;2.17;77.05;99353.88;7381673;19;20304;-75
2022/11/27 04:17:32;;;;;;;;;;;;;;;2.22;77.08;99362.31;7386575;19;19918;-75
2022/11/27 04:19:59;;;;;;;;;;;;;;;2.13;76.79;99363.63;7383303;19;20693;-75
2022/11/27 04:22:25;;;;;;;;;;;;;;;2.00;76.56;99362.53;7386590;19;19915;-75
2022/11/27 04:24:52;;;;;;;;;;;;;;;1.99;77.06;99355.66;7381494;19;19918;-75
2022/11/27 04:27:19;;;;;;;;;;;;;;;1.90;76.86;99359.56;7387758;19;19919;-75
2022/11/27 04:29:46;;;;;;;;;;;;;;;1.83;76.86;99365.16;7383844;19;19918;-75
2022/11/27 04:32:12;;;;;;;;;;;;;;;1.73;76.92;99367.38;7379149;19;19914;-75
2022/11/27 04:34:39;;;;;;;;;;;;;;;1.87;77.22;99356.25;7379199;19;19927;-75
2022/11/27 04:37:06;;;;;;;;;;;;;;;1.70;76.77;99352.72;7384146;19;19922;-75
2022/11/27 04:39:33;;;;;;;;;;;;;;;1.58;77.00;99342.91;7379413;19;19931;-75
2022/11/27 04:41:59;;;;;;;;;;;;;;;1.73;77.17;99336.91;7381680;19;19935;-75
2022/11/27 04:44:26;;;;;;;;;;;;;;;1.71;77.20;99336.19;7381049;19;19919;-75
2022/11/27 04:46:52;;;;;;;;;;;;;;;1.76;77.32;99330.69;7386762;19;19934;-75
2022/11/27 04:49:19;;;;;;;;;;;;;;;1.74;77.24;99333.41;7383491;19;19915;-75
2022/11/27 04:51:46;;;;;;;;;;;;;;;1.63;77.23;99335.69;7384452;19;19926;-75
2022/11/27 04:54:12;;;;;;;;;;;;;;;1.67;77.65;99336.38;7382752;19;19923;-75
2022/11/27 04:56:39;;;;;;;;;;;;;;;1.75;77.31;99327.25;7386057;19;20331;-75
2022/11/27 04:59:05;;;;;;;;;;;;;;;1.85;77.05;99332.03;7386430;19;20957;-75
2022/11/27 05:01:33;;;;;;;;;;;;;;;1.91;77.21;99344.75;7384209;19;19923;-75
2022/11/27 05:03:59;;;;;;;;;;;;;;;1.92;77.13;99344.69;7383210;19;19915;-75
2022/11/27 05:06:32;;;;;;;;;;;;;;;1.82;77.16;99342.59;7384250;19;19952;-75
2022/11/27 05:09:00;;;;;;;;;;;;;;;1.66;77.03;99343.38;7382383;19;20325;-75
2022/11/27 05:11:28;;;;;;;;;;;;;;;1.60;78.13;99335.00;7379587;19;19974;-74
2022/11/27 05:14:13;;;;;;;;;;;;;;;1.81;77.60;99326.09;7375575;19;19915;-75
2022/11/27 05:16:40;;;;;;;;;;;;;;;1.70;77.70;99324.03;7382043;19;19930;-75
2022/11/27 05:19:08;;;;;;;;;;;;;;;1.73;77.53;99316.03;7379610;19;19926;-75
2022/11/27 05:21:35;;;;;;;;;;;;;;;1.56;77.36;99315.22;7380383;19;24766;-75
2022/11/27 05:24:04;;;;;;;;;;;;;;;1.64;77.53;99305.25;7378326;19;19986;-75
2022/11/27 05:26:32;;;;;;;;;;;;;;;1.63;77.31;99306.16;7382743;19;19923;-75
2022/11/27 05:28:58;;;;;;;;;;;;;;;1.68;77.57;99318.03;7376616;19;19923;-75
2022/11/27 05:31:25;;;;;;;;;;;;;;;1.71;77.46;99312.69;7379352;19;19949;-75
2022/11/27 05:33:52;;;;;;;;;;;;;;;1.57;78.19;99309.06;7379309;19;20509;-75
2022/11/27 05:36:18;;;;;;;;;;;;;;;1.70;77.90;99304.94;7380838;19;19914;-75
2022/11/27 05:38:45;;;;;;;;;;;;;;;1.78;77.56;99309.75;7382679;19;19939;-74
2022/11/27 05:41:11;;;;;;;;;;;;;;;2.03;76.89;99306.72;7381174;19;19960;-75
2022/11/27 05:43:38;;;;;;;;;;;;;;;2.02;76.70;99297.22;7380590;19;19926;-75
2022/11/27 05:46:05;;;;;;;;;;;;;;;2.06;76.53;99307.44;7379700;19;19923;-76
2022/11/27 05:48:33;;;;;;;;;;;;;;;2.14;76.20;99307.03;7377250;19;19955;-75
2022/11/27 05:50:59;;;;;;;;;;;;;;;2.03;76.36;99312.81;7378680;19;19919;-75
2022/11/27 05:53:26;;;;;;;;;;;;;;;1.73;76.77;99305.59;7380753;19;20285;-75
2022/11/27 05:55:52;;;;;;;;;;;;;;;1.75;75.75;99311.59;7380496;19;19914;-75
2022/11/27 05:58:19;;;;;;;;;;;;;;;1.51;76.15;99312.84;7382405;19;19923;-75
2022/11/27 06:00:46;;;;;;;;;;;;;;;1.52;76.39;99317.97;7382651;19;20323;-75
2022/11/27 06:03:12;;;;;;;;;;;;;;;1.51;76.72;99316.28;7380083;19;20387;-75
2022/11/27 06:05:40;;;;;;;;;;;;;;;1.58;76.49;99318.56;7374565;19;20347;-75
2022/11/27 06:08:06;;;;;;;;;;;;;;;1.83;75.45;99315.59;7378400;19;19918;-75
2022/11/27 06:10:33;;;;;;;;;;;;;;;1.76;75.60;99315.06;7381309;19;20350;-75
2022/11/27 06:12:59;;;;;;;;;;;;;;;1.61;75.68;99318.44;7380933;19;20351;-75
2022/11/27 06:15:26;;;;;;;;;;;;;;;1.60;74.98;99322.78;7378792;19;19915;-75
2022/11/27 06:17:52;;;;;;;;;;;;;;;1.38;75.29;99322.19;7379724;19;19950;-75
2022/11/27 06:20:19;;;;;;;;;;;;;;;1.30;75.25;99318.16;7378276;19;19946;-75
2022/11/27 06:22:46;;;;;;;;;;;;;;;1.36;75.35;99308.38;7379298;19;19932;-75
2022/11/27 06:25:12;;;;;;;;;;;;;;;1.36;74.84;99314.41;7380148;19;19954;-75
2022/11/27 06:27:39;;;;;;;;;;;;;;;1.26;74.62;99319.25;7381183;19;19927;-75
2022/11/27 06:30:06;;;;;;;;;;;;;;;1.25;74.58;99314.09;7381639;19;20324;-75
2022/11/27 06:32:33;;;;;;;;;;;;;;;1.31;73.96;99314.63;7383477;19;19930;-75
2022/11/27 06:35:00;;;;;;;;;;;;;;;1.28;73.77;99316.56;7377736;19;19919;-75
2022/11/27 06:37:27;;;;;;;;;;;;;;;1.07;74.65;99318.44;7379736;19;20550;-75
2022/11/27 06:39:53;;;;;;;;;;;;;;;1.12;75.62;99326.88;7379423;19;19998;-75
2022/11/27 06:42:20;;;;;;;;;;;;;;;1.36;75.15;99326.63;7386431;19;20750;-75
2022/11/27 06:44:46;;;;;;;;;;;;;;;1.37;75.35;99331.78;7383543;19;19919;-75
2022/11/27 06:47:14;;;;;;;;;;;;;;;1.49;74.97;99331.16;7391923;19;19933;-75
2022/11/27 06:49:40;;;;;;;;;;;;;;;1.47;74.83;99321.72;7386480;19;19957;-75
2022/11/27 06:52:07;;;;;;;;;;;;;;;1.16;75.49;99322.34;7383128;19;19958;-75
2022/11/27 06:54:33;;;;;;;;;;;;;;;0.84;75.80;99312.56;7385361;19;19943;-75
2022/11/27 06:57:00;;;;;;;;;;;;;;;0.67;76.24;99304.66;7387275;19;19915;-75
2022/11/27 06:59:26;;;;;;;;;;;;;;;0.68;77.22;99306.34;7387317;19;19923;-75
2022/11/27 07:01:53;;;;;;;;;;;;;;;0.80;77.24;99303.19;7385624;19;20339;-75
2022/11/27 07:04:19;;;;;;;;;;;;;;;0.84;77.26;99301.25;7387090;19;20262;-75
2022/11/27 07:06:46;;;;;;;;;;;;;;;0.93;77.35;99302.63;7393155;19;19923;-75
2022/11/27 07:09:13;;;;;;;;;;;;;;;1.09;77.03;99298.34;7388657;19;19923;-76
2022/11/27 07:11:39;;;;;;;;;;;;;;;1.14;77.01;99296.38;7387501;19;20042;-75
2022/11/27 07:14:06;;;;;;;;;;;;;;;1.32;77.08;99302.47;7384602;19;19911;-75
2022/11/27 07:16:33;;;;;;;;;;;;;;;1.57;76.56;99298.66;7390786;19;19918;-75
2022/11/27 07:19:02;;;;;;;;;;;;;;;1.72;76.19;99300.50;7387537;19;20360;-76
2022/11/27 07:21:28;;;;;;;;;;;;;;;1.66;75.82;99300.78;7385568;19;19922;-76
2022/11/27 07:23:55;;;;;;;;;;;;;;;1.54;75.01;99297.03;7387141;19;19927;-77
2022/11/27 07:26:23;;;;;;;;;;;;;;;1.60;74.70;99301.09;7386983;19;19944;-76
2022/11/27 07:28:49;;;;;;;;;;;;;;;1.45;75.64;99302.69;7384721;19;20654;-76
2022/11/27 07:31:17;;;;;;;;;;;;;;;1.59;76.03;99295.03;7384897;19;19944;-76
2022/11/27 07:33:47;;;;;;;;;;;;;;;1.28;77.18;99286.13;7384530;19;19911;-76
2022/11/27 07:36:18;;;;;;;;;;;;;;;1.40;76.93;99270.81;7387503;19;19944;-76
2022/11/27 07:38:45;;;;;;;;;;;;;;;1.46;77.12;99258.28;7382793;19;19919;-76
2022/11/27 07:41:11;;;;;;;;;;;;;;;1.64;76.65;99253.91;7383127;19;19957;-76
2022/11/27 07:43:38;;;;;;;;;;;;;;;1.66;76.72;99256.44;7383711;19;20240;-77
2022/11/27 07:46:06;;;;;;;;;;;;;;;1.78;75.75;99237.56;7378685;19;19947;-77
2022/11/27 07:48:32;;;;;;;;;;;;;;;1.68;75.67;99250.22;7383565;19;19992;-77
2022/11/27 07:50:59;;;;;;;;;;;;;;;1.70;76.07;99234.50;7385610;19;20566;-76
2022/11/27 07:53:26;;;;;;;;;;;;;;;1.63;76.64;99239.19;7388598;19;19956;-76
2022/11/27 07:55:52;;;;;;;;;;;;;;;1.72;77.45;99237.88;7390140;19;19922;-76
2022/11/27 07:58:19;;;;;;;;;;;;;;;1.78;77.17;99242.78;7389838;19;19911;-76
2022/11/27 08:00:47;;;;;;;;;;;;;;;1.96;77.34;99244.44;7390380;19;20558;-76
2022/11/27 08:03:15;;;;;;;;;;;;;;;2.11;77.24;99244.56;7388880;19;19923;-76
2022/11/27 08:05:42;;;;;;;;;;;;;;;2.05;77.12;99243.09;7386159;19;19944;-76
2022/11/27 08:08:08;;;;;;;;;;;;;;;2.06;77.46;99238.75;7388632;19;19914;-76
2022/11/27 08:10:35;;;;;;;;;;;;;;;2.22;77.03;99239.59;7389781;19;19923;-76
2022/11/27 08:13:01;;;;;;;;;;;;;;;2.25;77.03;99238.59;7389386;19;20410;-77
2022/11/27 08:15:30;;;;;;;;;;;;;;;2.37;76.94;99243.13;7380721;19;19945;-76
2022/11/27 08:17:57;;;;;;;;;;;;;;;2.34;77.52;99246.78;7385003;19;20310;-76
2022/11/27 08:20:24;;;;;;;;;;;;;;;2.41;77.45;99240.28;7382631;19;19926;-76
2022/11/27 08:22:50;;;;;;;;;;;;;;;2.58;77.22;99239.38;7385585;19;20568;-76
2022/11/27 08:25:17;;;;;;;;;;;;;;;2.78;76.54;99234.81;7384181;19;19952;-76
2022/11/27 08:27:46;;;;;;;;;;;;;;;2.73;77.01;99226.41;7389367;19;19939;-76
2022/11/27 08:30:14;;;;;;;;;;;;;;;2.59;77.30;99220.16;7389896;19;19922;-76
2022/11/27 08:32:42;;;;;;;;;;;;;;;2.64;77.31;99220.75;7385947;19;20362;-77
2022/11/27 08:35:10;;;;;;;;;;;;;;;2.89;76.95;99214.16;7386453;19;19911;-77
2022/11/27 08:37:37;;;;;;;;;;;;;;;2.95;77.17;99210.34;7387040;19;19918;-76
2022/11/27 08:40:04;;;;;;;;;;;;;;;2.97;77.50;99209.31;7380953;19;19947;-77
2022/11/27 08:42:31;;;;;;;;;;;;;;;3.03;77.07;99216.00;7390635;19;19914;-76
2022/11/27 08:44:58;;;;;;;;;;;;;;;3.03;77.44;99216.00;7388226;19;19935;-75
2022/11/27 08:47:25;;;;;;;;;;;;;;;3.16;77.32;99210.88;7390135;19;19918;-76
2022/11/27 08:49:52;;;;;;;;;;;;;;;3.21;77.32;99207.09;7386544;19;19922;-76
2022/11/27 08:52:19;;;;;;;;;;;;;;;3.11;77.82;99207.69;7386231;19;19918;-76
2022/11/27 08:54:47;;;;;;;;;;;;;;;3.19;77.47;99200.28;7383830;19;19923;-76
2022/11/27 08:57:19;;;;;;;;;;;;;;;3.12;77.85;99197.16;7386697;19;19926;-75
2022/11/27 08:59:46;;;;;;;;;;;;;;;3.37;77.64;99196.59;7390120;19;20733;-76
2022/11/27 09:02:13;;;;;;;;;;;;;;;3.50;77.60;99197.53;7386788;19;19929;-76
2022/11/27 09:04:39;;;;;;;;;;;;;;;3.54;77.86;99192.97;7381774;19;19957;-76
2022/11/27 09:07:06;;;;;;;;;;;;;;;3.57;77.79;99181.47;7389170;19;19926;-73
2022/11/27 09:09:34;;;;;;;;;;;;;;;3.76;77.45;99176.78;7385874;19;19919;-76
2022/11/27 09:12:01;;;;;;;;;;;;;;;3.88;77.67;99175.22;7382311;19;19923;-76
2022/11/27 09:14:27;;;;;;;;;;;;;;;4.12;77.40;99188.59;7382823;19;20339;-76
2022/11/27 09:16:54;;;;;;;;;;;;;;;4.21;77.60;99197.63;7388397;19;20231;-75
2022/11/27 09:19:21;;;;;;;;;;;;;;;4.39;76.90;99207.81;7383869;19;19921;-75
2022/11/27 09:21:48;;;;;;;;;;;;;;;4.55;76.68;99198.97;7382772;19;19948;-75
2022/11/27 09:24:14;;;;;;;;;;;;;;;4.43;77.07;99205.00;7384534;19;20252;-75
2022/11/27 09:26:43;;;;;;;;;;;;;;;4.65;76.79;99210.56;7380504;19;19918;-75
2022/11/27 09:29:10;;;;;;;;;;;;;;;4.87;76.38;99202.19;7380063;19;19923;-75
2022/11/27 09:31:36;;;;;;;;;;;;;;;5.03;76.24;99196.78;7384597;19;19940;-76
2022/11/27 09:34:04;;;;;;;;;;;;;;;5.24;76.39;99186.66;7382953;19;19956;-73
2022/11/27 09:36:31;;;;;;;;;;;;;;;5.19;76.74;99176.47;7383808;19;19965;-75
2022/11/27 09:38:57;;;;;;;;;;;;;;;5.64;75.60;99160.34;7383759;19;19918;-75
2022/11/27 09:41:24;;;;;;;;;;;;;;;5.93;75.23;99145.19;7383573;19;19943;-73
2022/11/27 09:43:52;;;;;;;;;;;;;;;5.98;75.11;99143.13;7380089;19;19910;-72
2022/11/27 09:46:27;;;;;;;;;;;;;;;5.94;74.73;99145.09;7382511;19;20232;-73
2022/11/27 09:48:53;;;;;;;;;;;;;;;5.99;74.65;99160.53;7381941;19;20390;-73
2022/11/27 09:51:23;;;;;;;;;;;;;;;5.99;75.22;99175.47;7381525;19;19998;-75
2022/11/27 09:53:51;;;;;;;;;;;;;;;6.21;74.74;99174.78;7383349;19;19911;-73
2022/11/27 09:56:18;;;;;;;;;;;;;;;6.33;74.74;99155.53;7384127;19;20392;-73
2022/11/27 09:58:55;;;;;;;;;;;;;;;6.32;75.56;99148.59;7382580;19;19915;-73
2022/11/27 10:01:29;;;;;;;;;;;;;;;6.59;74.94;99151.03;7376556;19;19948;-72
2022/11/27 10:04:12;;;;;;;;;;;;;;;6.66;74.43;99138.25;7377128;19;20618;-73
2022/11/27 10:06:51;;;;;;;;;;;;;;;6.76;74.17;99119.06;7380265;19;19923;-73
2022/11/27 10:09:24;;;;;;;;;;;;;;;6.87;73.81;99104.28;7383226;19;19935;-73
2022/11/27 10:12:06;;;;;;;;;;;;;;;7.23;73.64;99104.13;7379842;19;19954;-73
2022/11/27 10:14:38;;;;;;;;;;;;;;;7.39;72.38;99105.59;7388657;19;20015;-72
2022/11/27 10:17:15;;;;;;;;;;;;;;;7.42;73.23;99114.09;7395043;19;19922;-73
2022/11/27 10:20:01;;;;;;;;;;;;;;;7.20;73.45;99099.13;7391075;19;19943;-73
2022/11/27 10:22:30;;;;;;;;;;;;;;;7.04;73.59;99095.97;7396770;19;19951;-73
2022/11/27 10:25:02;;;;;;;;;;;;;;;7.07;72.88;99101.00;7383423;19;19922;-73
2022/11/27 10:27:35;;;;;;;;;;;;;;;7.02;73.61;99098.72;7398291;19;19943;-72
2022/11/27 10:30:02;;;;;;;;;;;;;;;7.07;73.38;99101.00;7397549;19;19922;-73
2022/11/27 10:32:29;;;;;;;;;;;;;;;7.12;73.50;99098.88;7396683;19;19919;-73
2022/11/27 10:35:18;;;;;;;;;;;;;;;7.41;73.45;99101.91;7394542;19;20335;-73
2022/11/27 10:37:46;;;;;;;;;;;;;;;7.57;72.42;99098.94;7392534;19;19955;-73
2022/11/27 10:40:12;;;;;;;;;;;;;;;7.58;71.99;99099.75;7394187;19;19936;-72
2022/11/27 10:42:42;;;;;;;;;;;;;;;7.74;72.40;99094.13;7397570;19;19922;-73
2022/11/27 10:45:16;;;;;;;;;;;;;;;7.70;72.08;99083.84;7398262;19;20289;-73
2022/11/27 10:47:47;;;;;;;;;;;;;;;7.64;70.84;99083.50;7398724;19;20267;-73
2022/11/27 10:50:17;;;;;;;;;;;;;;;7.78;70.31;99079.78;7393743;19;20192;-73
2022/11/27 10:52:54;;;;;;;;;;;;;;;8.07;70.97;99077.47;7390094;19;19966;-72
2022/11/27 10:55:35;;;;;;;;;;;;;;;7.95;70.65;99075.81;7394978;19;19918;-73
2022/11/27 10:58:01;;;;;;;;;;;;;;;7.93;70.60;99064.56;7396727;19;19988;-73
2022/11/27 11:00:28;;;;;;;;;;;;;;;8.05;71.65;99064.41;7400367;19;19927;-73
2022/11/27 11:02:58;;;;;;;;;;;;;;;7.97;69.82;99063.34;7399130;19;19918;-72
2022/11/27 11:05:25;;;;;;;;;;;;;;;8.02;69.56;99050.66;7396233;19;19915;-72
2022/11/27 11:08:15;;;;;;;;;;;;;;;8.29;70.65;99040.53;7397238;19;20367;-75
2022/11/27 11:10:49;;;;;;;;;;;;;;;8.33;70.93;99054.28;7395575;19;19922;-72
2022/11/27 11:13:20;;;;;;;;;;;;;;;8.14;70.62;99039.97;7398040;19;19944;-73
2022/11/27 11:16:02;;;;;;;;;;;;;;;8.25;71.37;99025.91;7395872;19;19940;-72
2022/11/27 11:18:33;;;;;;;;;;;;;;;8.35;71.47;99020.72;7395331;19;20310;-73
2022/11/27 11:21:01;;;;;;;;;;;;;;;8.33;70.92;99010.28;7394754;19;19945;-73
2022/11/27 11:23:32;;;;;;;;;;;;;;;8.43;71.57;98999.88;7391394;19;19934;-73
2022/11/27 11:26:00;;;;;;;;;;;;;;;8.45;70.89;98997.94;7389179;19;19915;-73
2022/11/27 11:28:27;;;;;;;;;;;;;;;8.50;71.03;98993.09;7389658;19;19926;-73
2022/11/27 11:30:55;;;;;;;;;;;;;;;8.62;69.26;98982.53;7388047;19;19919;-72
2022/11/27 11:33:22;;;;;;;;;;;;;;;8.67;69.70;98969.78;7386383;19;19956;-73
2022/11/27 11:35:52;;;;;;;;;;;;;;;8.71;69.24;98963.28;7385384;19;19911;-73
2022/11/27 11:38:21;;;;;;;;;;;;;;;8.71;67.99;98960.63;7385361;19;19937;-74
2022/11/27 11:40:59;;;;;;;;;;;;;;;8.88;69.22;98956.59;7381617;19;19970;-73
2022/11/27 11:43:34;;;;;;;;;;;;;;;8.97;68.05;98953.13;7381224;19;19978;-73
2022/11/27 11:46:15;;;;;;;;;;;;;;;9.06;68.86;98947.09;7384631;19;19923;-74
2022/11/27 11:48:51;;;;;;;;;;;;;;;9.18;66.51;98947.81;7385140;19;20562;-73
2022/11/27 11:51:21;;;;;;;;;;;;;;;9.18;66.60;98946.00;7384520;19;19948;-74
2022/11/27 11:54:14;;;;;;;;;;;;;;;9.02;66.09;98950.94;7382896;19;20259;-72
2022/11/27 11:56:43;;;;;;;;;;;;;;;9.07;65.75;98940.81;7389987;19;20281;-74
2022/11/27 11:59:16;;;;;;;;;;;;;;;9.19;65.27;98950.34;7387258;19;19929;-74
2022/11/27 12:01:44;;;;;;;;;;;;;;;9.07;66.51;98938.19;7388858;19;19947;-73
2022/11/27 12:04:17;;;;;;;;;;;;;;;9.07;65.41;98932.09;7387369;19;19922;-73
2022/11/27 12:07:13;;;;;;;;;;;;;;;9.15;64.98;98930.44;7386150;19;20009;-74
2022/11/27 12:09:43;;;;;;;;;;;;;;;9.19;65.64;98920.47;7387701;19;20398;-75
2022/11/27 12:12:16;;;;;;;;;;;;;;;9.25;65.81;98912.00;7386548;19;19939;-74
2022/11/27 12:14:49;;;;;;;;;;;;;;;9.33;67.03;98909.53;7383897;19;19926;-73
2022/11/27 12:17:22;;;;;;;;;;;;;;;9.21;66.49;98914.06;7387657;19;19936;-73
2022/11/27 12:19:52;;;;;;;;;;;;;;;9.21;65.08;98900.84;7386058;19;19922;-73
2022/11/27 12:22:39;;;;;;;;;;;;;;;9.22;64.76;98905.19;7384297;19;19919;-73
2022/11/27 12:25:21;;;;;;;;;;;;;;;9.27;63.96;98896.88;7388835;19;19919;-73
2022/11/27 12:28:08;;;;;;;;;;;;;;;9.44;64.93;98892.72;7390027;19;19927;-72
2022/11/27 12:30:41;;;;;;;;;;;;;;;9.48;63.80;98894.16;7385287;19;19915;-73
2022/11/27 12:33:17;;;;;;;;;;;;;;;9.50;63.74;98883.44;7382455;19;19947;-73
2022/11/27 12:36:03;;;;;;;;;;;;;;;9.51;62.87;98878.03;7387248;19;20564;-73
2022/11/27 12:39:01;;;;;;;;;;;;;;;9.64;64.85;98877.75;7387581;19;20302;-73
2022/11/27 12:41:47;;;;;;;;;;;;;;;9.65;63.54;98874.13;7386544;19;20002;-73
2022/11/27 12:44:25;;;;;;;;;;;;;;;9.70;60.52;98864.00;7388859;19;19911;-73
2022/11/27 12:47:11;;;;;;;;;;;;;;;9.66;62.09;98859.94;7384618;19;19953;-73
2022/11/27 12:49:42;;;;;;;;;;;;;;;9.65;61.83;98858.28;7383066;19;19919;-73
2022/11/27 12:52:13;;;;;;;;;;;;;;;9.50;61.86;98860.47;7384532;19;19959;-73
2022/11/27 12:54:42;;;;;;;;;;;;;;;9.56;61.98;98854.69;7386719;19;19935;-72
2022/11/27 12:57:12;;;;;;;;;;;;;;;9.64;64.06;98852.19;7382935;19;19915;-72
2022/11/27 12:59:42;;;;;;;;;;;;;;;9.62;64.54;98851.47;7386075;19;19923;-72
2022/11/27 13:02:08;;;;;;;;;;;;;;;9.48;63.72;98846.59;7381277;19;19918;-72
2022/11/27 13:04:38;;;;;;;;;;;;;;;9.37;63.17;98846.69;7384636;19;19911;-72
2022/11/27 13:07:07;;;;;;;;;;;;;;;9.18;62.97;98832.50;7386349;19;20274;-74
2022/11/27 13:09:39;;;;;;;;;;;;;;;9.05;63.15;98837.19;7389756;19;19915;-72